Terminal Aerodrome Forecast
Issued by NWS

Home | Current Version | Previous Version | Graphics & Text | Print | Product List | Glossary On
Versions: 1 2 3 4 5 6 7 8 9 10 11 12 13 14 15 16 17 18 19 20
000
FTUS43 KMPX 310907 AAA
TAFRNH
TAF AMD
KRNH 310907Z 3109/0106 13007KT P6SM BKN100
     FM311300 15008KT P6SM -SHRA BKN050 OVC100
     FM311900 20012KT P6SM VCTS BKN060CB
     FM010100 23008KT P6SM BKN100=

USA.gov is the U.S. government's official web portal to all federal, state and local government web resources and services.